Terminal Aerodrome Forecast
Issued by NWS

Home | Current Version | Previous Version | Text Only | Print | Product List | Glossary On
Versions: 1 2 3 4 5 6 7 8 9 10 11 12 13 14 15 16 17 18 19 20 21 22 23 24 25 26 27 28 29 30 31 32 33 34 35 36 37 38 39
000
FTUS43 KDTX 212009 AAA
TAFPTK
TAF AMD
KPTK 212009Z 2120/2218 20018G27KT 3SM -SHRA BKN010 OVC018
      TEMPO 2122/2123 OVC008
     FM212300 23020G30KT P6SM OVC008
     FM220300 28018G28KT P6SM OVC016
     FM220800 30014G24KT P6SM OVC025
     FM221400 31012G18KT P6SM BKN030=

USA.gov is the U.S. government's official web portal to all federal, state and local government web resources and services.